sensor_id;sensor_type;location;lat;lon;timestamp;temperature;humidity
32640;DHT22;19049;52.524;11.468;2023-11-19T00:02:08;7.70;99.90
32640;DHT22;19049;52.524;11.468;2023-11-19T00:04:38;7.70;99.90
32640;DHT22;19049;52.524;11.468;2023-11-19T00:07:06;7.70;99.90
32640;DHT22;19049;52.524;11.468;2023-11-19T00:09:33;7.60;99.90
32640;DHT22;19049;52.524;11.468;2023-11-19T00:12:02;7.70;99.90
32640;DHT22;19049;52.524;11.468;2023-11-19T00:14:28;7.60;99.90
32640;DHT22;19049;52.524;11.468;2023-11-19T00:16:54;7.60;99.90
32640;DHT22;19049;52.524;11.468;2023-11-19T00:19:20;7.60;99.90
32640;DHT22;19049;52.524;11.468;2023-11-19T00:21:45;7.60;99.90
32640;DHT22;19049;52.524;11.468;2023-11-19T00:24:11;7.60;99.90
32640;DHT22;19049;52.524;11.468;2023-11-19T00:26:41;7.60;99.90
32640;DHT22;19049;52.524;11.468;2023-11-19T00:29:07;7.60;99.90
32640;DHT22;19049;52.524;11.468;2023-11-19T00:31:33;7.60;99.90
32640;DHT22;19049;52.524;11.468;2023-11-19T00:33:58;7.60;99.90
32640;DHT22;19049;52.524;11.468;2023-11-19T00:36:24;7.60;99.90
32640;DHT22;19049;52.524;11.468;2023-11-19T00:38:51;7.60;99.90
32640;DHT22;19049;52.524;11.468;2023-11-19T00:41:18;7.70;99.90
32640;DHT22;19049;52.524;11.468;2023-11-19T00:43:44;7.60;99.90
32640;DHT22;19049;52.524;11.468;2023-11-19T00:46:09;7.60;99.90
32640;DHT22;19049;52.524;11.468;2023-11-19T00:48:36;7.60;99.90
32640;DHT22;19049;52.524;11.468;2023-11-19T00:51:02;7.60;99.90
32640;DHT22;19049;52.524;11.468;2023-11-19T00:53:29;7.60;99.90
32640;DHT22;19049;52.524;11.468;2023-11-19T00:55:55;7.60;99.90
32640;DHT22;19049;52.524;11.468;2023-11-19T00:58:21;7.60;99.90
32640;DHT22;19049;52.524;11.468;2023-11-19T01:00:46;7.60;99.90
32640;DHT22;19049;52.524;11.468;2023-11-19T01:03:12;7.60;99.90
32640;DHT22;19049;52.524;11.468;2023-11-19T01:05:38;7.60;99.90
32640;DHT22;19049;52.524;11.468;2023-11-19T01:08:04;7.60;99.90
32640;DHT22;19049;52.524;11.468;2023-11-19T01:10:30;7.60;99.90
32640;DHT22;19049;52.524;11.468;2023-11-19T01:12:56;7.60;99.90
32640;DHT22;19049;52.524;11.468;2023-11-19T01:15:23;7.60;99.90
32640;DHT22;19049;52.524;11.468;2023-11-19T01:17:48;7.60;99.90
32640;DHT22;19049;52.524;11.468;2023-11-19T01:20:14;7.70;99.90
32640;DHT22;19049;52.524;11.468;2023-11-19T01:22:40;7.60;99.90
32640;DHT22;19049;52.524;11.468;2023-11-19T01:25:06;7.60;99.90
32640;DHT22;19049;52.524;11.468;2023-11-19T01:27:33;7.60;99.90
32640;DHT22;19049;52.524;11.468;2023-11-19T01:30:02;7.60;99.90
32640;DHT22;19049;52.524;11.468;2023-11-19T01:32:35;7.60;99.90
32640;DHT22;19049;52.524;11.468;2023-11-19T01:35:02;7.60;99.90
32640;DHT22;19049;52.524;11.468;2023-11-19T01:37:28;7.60;99.90
32640;DHT22;19049;52.524;11.468;2023-11-19T01:39:53;7.60;99.90
32640;DHT22;19049;52.524;11.468;2023-11-19T01:42:19;7.70;99.90
32640;DHT22;19049;52.524;11.468;2023-11-19T01:44:58;7.70;99.90
32640;DHT22;19049;52.524;11.468;2023-11-19T01:47:25;7.70;99.90
32640;DHT22;19049;52.524;11.468;2023-11-19T01:49:51;7.70;99.90
32640;DHT22;19049;52.524;11.468;2023-11-19T01:52:18;7.70;99.90
32640;DHT22;19049;52.524;11.468;2023-11-19T01:54:44;7.60;99.90
32640;DHT22;19049;52.524;11.468;2023-11-19T01:57:10;7.60;99.90
32640;DHT22;19049;52.524;11.468;2023-11-19T01:59:37;7.60;99.90
32640;DHT22;19049;52.524;11.468;2023-11-19T02:02:04;7.60;99.90
32640;DHT22;19049;52.524;11.468;2023-11-19T02:04:31;7.60;99.90
32640;DHT22;19049;52.524;11.468;2023-11-19T02:06:58;7.60;99.90
32640;DHT22;19049;52.524;11.468;2023-11-19T02:09:24;7.60;99.90
32640;DHT22;19049;52.524;11.468;2023-11-19T02:11:49;7.60;99.90
32640;DHT22;19049;52.524;11.468;2023-11-19T02:14:17;7.60;99.90
32640;DHT22;19049;52.524;11.468;2023-11-19T02:16:43;7.60;99.90
32640;DHT22;19049;52.524;11.468;2023-11-19T02:19:09;7.70;99.90
32640;DHT22;19049;52.524;11.468;2023-11-19T02:21:37;7.70;99.90
32640;DHT22;19049;52.524;11.468;2023-11-19T02:24:07;7.70;99.90
32640;DHT22;19049;52.524;11.468;2023-11-19T02:27:02;7.70;99.90
32640;DHT22;19049;52.524;11.468;2023-11-19T02:29:29;7.70;99.90
32640;DHT22;19049;52.524;11.468;2023-11-19T02:31:54;7.70;99.90
32640;DHT22;19049;52.524;11.468;2023-11-19T02:34:20;7.70;99.90
32640;DHT22;19049;52.524;11.468;2023-11-19T02:36:47;7.70;99.90
32640;DHT22;19049;52.524;11.468;2023-11-19T02:39:13;7.70;99.90
32640;DHT22;19049;52.524;11.468;2023-11-19T02:41:39;7.70;99.90
32640;DHT22;19049;52.524;11.468;2023-11-19T02:44:06;7.70;99.90
32640;DHT22;19049;52.524;11.468;2023-11-19T02:46:32;7.70;99.90
32640;DHT22;19049;52.524;11.468;2023-11-19T02:48:57;7.70;99.90
32640;DHT22;19049;52.524;11.468;2023-11-19T02:51:23;7.70;99.90
32640;DHT22;19049;52.524;11.468;2023-11-19T02:53:49;7.70;99.90
32640;DHT22;19049;52.524;11.468;2023-11-19T02:56:14;7.70;99.90
32640;DHT22;19049;52.524;11.468;2023-11-19T02:58:45;7.70;99.90
32640;DHT22;19049;52.524;11.468;2023-11-19T03:01:12;7.70;99.90
32640;DHT22;19049;52.524;11.468;2023-11-19T03:03:49;7.80;99.90
32640;DHT22;19049;52.524;11.468;2023-11-19T03:06:20;7.70;99.90
32640;DHT22;19049;52.524;11.468;2023-11-19T03:08:47;7.70;99.90
32640;DHT22;19049;52.524;11.468;2023-11-19T03:11:13;7.70;99.90
32640;DHT22;19049;52.524;11.468;2023-11-19T03:13:39;7.70;99.90
32640;DHT22;19049;52.524;11.468;2023-11-19T03:16:05;7.70;99.90
32640;DHT22;19049;52.524;11.468;2023-11-19T03:18:30;7.70;99.90
32640;DHT22;19049;52.524;11.468;2023-11-19T03:20:56;7.70;99.90
32640;DHT22;19049;52.524;11.468;2023-11-19T03:23:24;7.80;99.90
32640;DHT22;19049;52.524;11.468;2023-11-19T03:25:53;7.80;99.90
32640;DHT22;19049;52.524;11.468;2023-11-19T03:28:18;7.80;99.90
32640;DHT22;19049;52.524;11.468;2023-11-19T03:30:44;7.80;99.90
32640;DHT22;19049;52.524;11.468;2023-11-19T03:33:10;7.80;99.90
32640;DHT22;19049;52.524;11.468;2023-11-19T03:35:35;7.80;99.90
32640;DHT22;19049;52.524;11.468;2023-11-19T03:38:01;7.80;99.90
32640;DHT22;19049;52.524;11.468;2023-11-19T03:40:28;7.80;99.90
32640;DHT22;19049;52.524;11.468;2023-11-19T03:42:56;7.90;99.90
32640;DHT22;19049;52.524;11.468;2023-11-19T03:45:22;7.90;99.90
32640;DHT22;19049;52.524;11.468;2023-11-19T03:47:48;7.90;99.90
32640;DHT22;19049;52.524;11.468;2023-11-19T03:50:15;7.90;99.90
32640;DHT22;19049;52.524;11.468;2023-11-19T03:52:41;7.90;99.90
32640;DHT22;19049;52.524;11.468;2023-11-19T03:55:07;7.90;99.90
32640;DHT22;19049;52.524;11.468;2023-11-19T03:57:34;7.90;99.90
32640;DHT22;19049;52.524;11.468;2023-11-19T04:00:00;7.90;99.90
32640;DHT22;19049;52.524;11.468;2023-11-19T04:02:28;7.90;99.90
32640;DHT22;19049;52.524;11.468;2023-11-19T04:04:54;8.00;99.90
32640;DHT22;19049;52.524;11.468;2023-11-19T04:07:20;8.00;99.90
32640;DHT22;19049;52.524;11.468;2023-11-19T04:09:46;8.00;99.90
32640;DHT22;19049;52.524;11.468;2023-11-19T04:12:12;8.00;99.90
32640;DHT22;19049;52.524;11.468;2023-11-19T04:14:38;8.00;99.90
32640;DHT22;19049;52.524;11.468;2023-11-19T04:17:03;8.10;99.90
32640;DHT22;19049;52.524;11.468;2023-11-19T04:19:29;8.10;99.90
32640;DHT22;19049;52.524;11.468;2023-11-19T04:21:55;8.10;99.90
32640;DHT22;19049;52.524;11.468;2023-11-19T04:24:20;8.10;99.90
32640;DHT22;19049;52.524;11.468;2023-11-19T04:26:46;8.20;99.90
32640;DHT22;19049;52.524;11.468;2023-11-19T04:29:16;8.20;99.90
32640;DHT22;19049;52.524;11.468;2023-11-19T04:31:43;8.20;99.90
32640;DHT22;19049;52.524;11.468;2023-11-19T04:34:10;8.20;99.90
32640;DHT22;19049;52.524;11.468;2023-11-19T04:36:36;8.20;99.90
32640;DHT22;19049;52.524;11.468;2023-11-19T04:39:03;8.30;99.90
32640;DHT22;19049;52.524;11.468;2023-11-19T04:41:45;8.30;99.90
32640;DHT22;19049;52.524;11.468;2023-11-19T04:44:12;8.30;99.90
32640;DHT22;19049;52.524;11.468;2023-11-19T04:46:37;8.30;99.90
32640;DHT22;19049;52.524;11.468;2023-11-19T04:49:03;8.30;99.90
32640;DHT22;19049;52.524;11.468;2023-11-19T04:51:30;8.30;99.90
32640;DHT22;19049;52.524;11.468;2023-11-19T04:53:55;8.30;99.90
32640;DHT22;19049;52.524;11.468;2023-11-19T04:56:21;8.40;99.90
32640;DHT22;19049;52.524;11.468;2023-11-19T04:58:48;8.30;99.90
32640;DHT22;19049;52.524;11.468;2023-11-19T05:01:14;8.40;99.90
32640;DHT22;19049;52.524;11.468;2023-11-19T05:03:43;8.40;99.90
32640;DHT22;19049;52.524;11.468;2023-11-19T05:06:09;8.40;99.90
32640;DHT22;19049;52.524;11.468;2023-11-19T05:08:35;8.40;99.90
32640;DHT22;19049;52.524;11.468;2023-11-19T05:11:01;8.50;99.90
32640;DHT22;19049;52.524;11.468;2023-11-19T05:13:26;8.50;99.90
32640;DHT22;19049;52.524;11.468;2023-11-19T05:15:52;8.60;99.90
32640;DHT22;19049;52.524;11.468;2023-11-19T05:18:18;8.60;99.90
32640;DHT22;19049;52.524;11.468;2023-11-19T05:20:45;8.60;99.90
32640;DHT22;19049;52.524;11.468;2023-11-19T05:23:10;8.70;99.90
32640;DHT22;19049;52.524;11.468;2023-11-19T05:25:36;8.70;99.90
32640;DHT22;19049;52.524;11.468;2023-11-19T05:28:02;8.70;99.90
32640;DHT22;19049;52.524;11.468;2023-11-19T05:30:28;8.70;99.90
32640;DHT22;19049;52.524;11.468;2023-11-19T05:32:53;8.70;99.90
32640;DHT22;19049;52.524;11.468;2023-11-19T05:35:19;8.80;99.90
32640;DHT22;19049;52.524;11.468;2023-11-19T05:37:45;8.80;99.90
32640;DHT22;19049;52.524;11.468;2023-11-19T05:40:10;8.80;99.90
32640;DHT22;19049;52.524;11.468;2023-11-19T05:42:43;8.90;99.90
32640;DHT22;19049;52.524;11.468;2023-11-19T05:45:11;8.90;99.90
32640;DHT22;19049;52.524;11.468;2023-11-19T05:47:37;9.00;99.90
32640;DHT22;19049;52.524;11.468;2023-11-19T05:50:03;9.00;99.90
32640;DHT22;19049;52.524;11.468;2023-11-19T05:52:31;9.00;99.90
32640;DHT22;19049;52.524;11.468;2023-11-19T05:55:00;9.10;99.90
32640;DHT22;19049;52.524;11.468;2023-11-19T05:57:29;9.10;99.90
32640;DHT22;19049;52.524;11.468;2023-11-19T05:59:54;9.10;99.90
32640;DHT22;19049;52.524;11.468;2023-11-19T06:02:20;9.20;99.90
32640;DHT22;19049;52.524;11.468;2023-11-19T06:04:46;9.20;99.90
32640;DHT22;19049;52.524;11.468;2023-11-19T06:07:13;9.20;99.90
32640;DHT22;19049;52.524;11.468;2023-11-19T06:09:40;9.30;99.90
32640;DHT22;19049;52.524;11.468;2023-11-19T06:12:06;9.30;99.90
32640;DHT22;19049;52.524;11.468;2023-11-19T06:14:32;9.40;99.90
32640;DHT22;19049;52.524;11.468;2023-11-19T06:16:58;9.40;99.90
32640;DHT22;19049;52.524;11.468;2023-11-19T06:19:24;9.40;99.90
32640;DHT22;19049;52.524;11.468;2023-11-19T06:21:52;9.40;99.90
32640;DHT22;19049;52.524;11.468;2023-11-19T06:24:18;9.50;99.90
32640;DHT22;19049;52.524;11.468;2023-11-19T06:26:43;9.50;99.90
32640;DHT22;19049;52.524;11.468;2023-11-19T06:29:09;9.50;99.90
32640;DHT22;19049;52.524;11.468;2023-11-19T06:31:35;9.60;99.90
32640;DHT22;19049;52.524;11.468;2023-11-19T06:34:00;9.70;99.90
32640;DHT22;19049;52.524;11.468;2023-11-19T06:36:26;9.70;99.90
32640;DHT22;19049;52.524;11.468;2023-11-19T06:38:52;9.70;99.90
32640;DHT22;19049;52.524;11.468;2023-11-19T06:41:17;9.80;99.90
32640;DHT22;19049;52.524;11.468;2023-11-19T06:43:43;9.90;99.90
32640;DHT22;19049;52.524;11.468;2023-11-19T06:46:18;9.90;99.90
32640;DHT22;19049;52.524;11.468;2023-11-19T06:48:44;9.90;99.90
32640;DHT22;19049;52.524;11.468;2023-11-19T06:51:11;10.00;99.90
32640;DHT22;19049;52.524;11.468;2023-11-19T06:53:36;10.00;99.90
32640;DHT22;19049;52.524;11.468;2023-11-19T06:56:02;10.10;99.90
32640;DHT22;19049;52.524;11.468;2023-11-19T06:58:35;10.10;99.90
32640;DHT22;19049;52.524;11.468;2023-11-19T07:01:01;10.20;99.90
32640;DHT22;19049;52.524;11.468;2023-11-19T07:03:27;10.20;99.90
32640;DHT22;19049;52.524;11.468;2023-11-19T07:05:52;10.30;99.90
32640;DHT22;19049;52.524;11.468;2023-11-19T07:08:18;10.30;99.90
32640;DHT22;19049;52.524;11.468;2023-11-19T07:10:43;10.40;99.90
32640;DHT22;19049;52.524;11.468;2023-11-19T07:13:09;10.40;99.90
32640;DHT22;19049;52.524;11.468;2023-11-19T07:15:35;10.50;99.90
32640;DHT22;19049;52.524;11.468;2023-11-19T07:18:00;10.50;99.90
32640;DHT22;19049;52.524;11.468;2023-11-19T07:20:26;10.60;99.90
32640;DHT22;19049;52.524;11.468;2023-11-19T07:22:52;10.70;99.90
32640;DHT22;19049;52.524;11.468;2023-11-19T07:25:18;10.70;99.90
32640;DHT22;19049;52.524;11.468;2023-11-19T07:27:43;10.80;99.90
32640;DHT22;19049;52.524;11.468;2023-11-19T07:30:10;10.90;99.90
32640;DHT22;19049;52.524;11.468;2023-11-19T07:32:35;11.00;99.90
32640;DHT22;19049;52.524;11.468;2023-11-19T07:35:01;11.10;99.90
32640;DHT22;19049;52.524;11.468;2023-11-19T07:37:27;11.20;99.90
32640;DHT22;19049;52.524;11.468;2023-11-19T07:39:52;11.30;99.90
32640;DHT22;19049;52.524;11.468;2023-11-19T07:42:18;11.30;99.90
32640;DHT22;19049;52.524;11.468;2023-11-19T07:44:44;11.40;99.90
32640;DHT22;19049;52.524;11.468;2023-11-19T07:47:09;11.50;99.90
32640;DHT22;19049;52.524;11.468;2023-11-19T07:49:35;11.60;99.90
32640;DHT22;19049;52.524;11.468;2023-11-19T07:52:01;11.60;99.90
32640;DHT22;19049;52.524;11.468;2023-11-19T07:54:28;11.70;99.90
32640;DHT22;19049;52.524;11.468;2023-11-19T07:56:54;11.80;99.90
32640;DHT22;19049;52.524;11.468;2023-11-19T07:59:20;11.90;99.90
32640;DHT22;19049;52.524;11.468;2023-11-19T08:01:46;12.00;99.90
32640;DHT22;19049;52.524;11.468;2023-11-19T08:04:12;12.10;99.90
32640;DHT22;19049;52.524;11.468;2023-11-19T08:06:37;12.20;99.90
32640;DHT22;19049;52.524;11.468;2023-11-19T08:09:03;12.20;99.90
32640;DHT22;19049;52.524;11.468;2023-11-19T08:11:29;12.30;99.90
32640;DHT22;19049;52.524;11.468;2023-11-19T08:13:55;12.30;99.90
32640;DHT22;19049;52.524;11.468;2023-11-19T08:16:20;12.30;99.90
32640;DHT22;19049;52.524;11.468;2023-11-19T08:18:46;12.40;99.90
32640;DHT22;19049;52.524;11.468;2023-11-19T08:21:12;12.40;99.90
32640;DHT22;19049;52.524;11.468;2023-11-19T08:23:37;12.40;99.90
32640;DHT22;19049;52.524;11.468;2023-11-19T08:26:04;12.50;99.90
32640;DHT22;19049;52.524;11.468;2023-11-19T08:28:30;12.60;99.90
32640;DHT22;19049;52.524;11.468;2023-11-19T08:30:56;12.60;99.90
32640;DHT22;19049;52.524;11.468;2023-11-19T08:33:22;12.60;99.90
32640;DHT22;19049;52.524;11.468;2023-11-19T08:35:48;12.70;99.90
32640;DHT22;19049;52.524;11.468;2023-11-19T08:38:14;12.70;99.90
32640;DHT22;19049;52.524;11.468;2023-11-19T08:40:39;12.80;99.90
32640;DHT22;19049;52.524;11.468;2023-11-19T08:43:05;12.80;99.90
32640;DHT22;19049;52.524;11.468;2023-11-19T08:45:31;12.80;99.90
32640;DHT22;19049;52.524;11.468;2023-11-19T08:47:57;12.90;99.90
32640;DHT22;19049;52.524;11.468;2023-11-19T08:50:23;12.90;99.90
32640;DHT22;19049;52.524;11.468;2023-11-19T08:52:49;12.90;99.90
32640;DHT22;19049;52.524;11.468;2023-11-19T08:55:14;13.00;99.90
32640;DHT22;19049;52.524;11.468;2023-11-19T08:57:40;13.10;99.90
32640;DHT22;19049;52.524;11.468;2023-11-19T09:00:06;13.20;99.90
32640;DHT22;19049;52.524;11.468;2023-11-19T09:02:35;13.30;99.90
32640;DHT22;19049;52.524;11.468;2023-11-19T09:05:02;13.40;99.90
32640;DHT22;19049;52.524;11.468;2023-11-19T09:07:28;13.50;99.90
32640;DHT22;19049;52.524;11.468;2023-11-19T09:09:54;13.60;99.90
32640;DHT22;19049;52.524;11.468;2023-11-19T09:12:19;13.70;99.90
32640;DHT22;19049;52.524;11.468;2023-11-19T09:14:45;13.80;99.90
32640;DHT22;19049;52.524;11.468;2023-11-19T09:17:11;13.80;99.90
32640;DHT22;19049;52.524;11.468;2023-11-19T09:19:37;13.90;99.90
32640;DHT22;19049;52.524;11.468;2023-11-19T09:22:02;13.90;99.90
32640;DHT22;19049;52.524;11.468;2023-11-19T09:24:28;13.90;99.90
32640;DHT22;19049;52.524;11.468;2023-11-19T09:26:54;13.80;99.90
32640;DHT22;19049;52.524;11.468;2023-11-19T09:29:21;13.80;99.90
32640;DHT22;19049;52.524;11.468;2023-11-19T09:31:47;13.80;99.90
32640;DHT22;19049;52.524;11.468;2023-11-19T09:34:13;13.80;99.90
32640;DHT22;19049;52.524;11.468;2023-11-19T09:36:38;13.80;99.90
32640;DHT22;19049;52.524;11.468;2023-11-19T09:39:12;13.80;99.90
32640;DHT22;19049;52.524;11.468;2023-11-19T09:41:40;13.80;99.90
32640;DHT22;19049;52.524;11.468;2023-11-19T09:44:08;13.80;99.90
32640;DHT22;19049;52.524;11.468;2023-11-19T09:46:35;13.80;99.90
32640;DHT22;19049;52.524;11.468;2023-11-19T09:49:02;13.80;99.90
32640;DHT22;19049;52.524;11.468;2023-11-19T09:51:29;13.80;99.90
32640;DHT22;19049;52.524;11.468;2023-11-19T09:53:55;13.80;99.90
32640;DHT22;19049;52.524;11.468;2023-11-19T09:56:22;13.90;99.90
32640;DHT22;19049;52.524;11.468;2023-11-19T09:58:48;14.00;99.90
32640;DHT22;19049;52.524;11.468;2023-11-19T10:01:14;14.10;99.90
32640;DHT22;19049;52.524;11.468;2023-11-19T10:03:41;14.10;99.90
32640;DHT22;19049;52.524;11.468;2023-11-19T10:06:10;14.20;99.90
32640;DHT22;19049;52.524;11.468;2023-11-19T10:08:39;14.20;99.90
32640;DHT22;19049;52.524;11.468;2023-11-19T10:11:08;14.20;99.90
32640;DHT22;19049;52.524;11.468;2023-11-19T10:13:35;14.20;99.90
32640;DHT22;19049;52.524;11.468;2023-11-19T10:16:17;14.10;99.90
32640;DHT22;19049;52.524;11.468;2023-11-19T10:18:47;14.20;99.90
32640;DHT22;19049;52.524;11.468;2023-11-19T10:21:14;14.20;99.90
32640;DHT22;19049;52.524;11.468;2023-11-19T10:24:02;14.20;99.90
32640;DHT22;19049;52.524;11.468;2023-11-19T10:26:30;14.20;99.90
32640;DHT22;19049;52.524;11.468;2023-11-19T10:28:56;14.30;99.90
32640;DHT22;19049;52.524;11.468;2023-11-19T10:31:22;14.20;99.90
32640;DHT22;19049;52.524;11.468;2023-11-19T10:33:51;14.10;99.90
32640;DHT22;19049;52.524;11.468;2023-11-19T10:36:18;14.10;99.90
32640;DHT22;19049;52.524;11.468;2023-11-19T10:39:01;14.20;99.90
32640;DHT22;19049;52.524;11.468;2023-11-19T10:41:32;14.30;99.90
32640;DHT22;19049;52.524;11.468;2023-11-19T10:43:58;14.20;99.90
32640;DHT22;19049;52.524;11.468;2023-11-19T10:46:39;14.20;99.90
32640;DHT22;19049;52.524;11.468;2023-11-19T10:49:06;14.30;99.90
32640;DHT22;19049;52.524;11.468;2023-11-19T10:51:32;14.30;99.90
32640;DHT22;19049;52.524;11.468;2023-11-19T10:54:07;14.20;99.90
32640;DHT22;19049;52.524;11.468;2023-11-19T10:56:33;14.30;99.90
32640;DHT22;19049;52.524;11.468;2023-11-19T10:59:00;14.40;99.90
32640;DHT22;19049;52.524;11.468;2023-11-19T11:01:45;14.50;99.90
32640;DHT22;19049;52.524;11.468;2023-11-19T11:04:22;14.50;99.90
32640;DHT22;19049;52.524;11.468;2023-11-19T11:06:48;14.40;99.90
32640;DHT22;19049;52.524;11.468;2023-11-19T11:09:14;14.50;99.90
32640;DHT22;19049;52.524;11.468;2023-11-19T11:11:41;14.50;99.90
32640;DHT22;19049;52.524;11.468;2023-11-19T11:14:12;14.40;99.90
32640;DHT22;19049;52.524;11.468;2023-11-19T11:16:42;14.40;99.90
32640;DHT22;19049;52.524;11.468;2023-11-19T11:19:09;14.40;99.90
32640;DHT22;19049;52.524;11.468;2023-11-19T11:21:37;14.50;99.90
32640;DHT22;19049;52.524;11.468;2023-11-19T11:37:33;14.60;99.90
32640;DHT22;19049;52.524;11.468;2023-11-19T11:40:02;14.70;99.90
32640;DHT22;19049;52.524;11.468;2023-11-19T11:42:37;14.70;99.90
32640;DHT22;19049;52.524;11.468;2023-11-19T11:45:11;14.70;99.90
32640;DHT22;19049;52.524;11.468;2023-11-19T11:55:28;14.80;99.90
32640;DHT22;19049;52.524;11.468;2023-11-19T11:57:57;14.80;99.90
32640;DHT22;19049;52.524;11.468;2023-11-19T12:03:01;14.50;99.90
32640;DHT22;19049;52.524;11.468;2023-11-19T12:05:27;14.60;99.90
32640;DHT22;19049;52.524;11.468;2023-11-19T12:08:00;14.60;99.90
32640;DHT22;19049;52.524;11.468;2023-11-19T12:10:31;14.40;99.90
32640;DHT22;19049;52.524;11.468;2023-11-19T12:13:01;14.30;99.90
32640;DHT22;19049;52.524;11.468;2023-11-19T12:15:27;14.20;99.90
32640;DHT22;19049;52.524;11.468;2023-11-19T12:17:54;14.20;99.90
32640;DHT22;19049;52.524;11.468;2023-11-19T12:20:22;14.20;99.90
32640;DHT22;19049;52.524;11.468;2023-11-19T12:22:48;14.20;99.90
32640;DHT22;19049;52.524;11.468;2023-11-19T12:25:15;14.20;99.90
32640;DHT22;19049;52.524;11.468;2023-11-19T12:27:47;14.30;99.90
32640;DHT22;19049;52.524;11.468;2023-11-19T12:30:17;14.20;99.90
32640;DHT22;19049;52.524;11.468;2023-11-19T12:32:46;14.20;99.90
32640;DHT22;19049;52.524;11.468;2023-11-19T12:35:13;14.30;99.90
32640;DHT22;19049;52.524;11.468;2023-11-19T12:37:40;14.40;99.90
32640;DHT22;19049;52.524;11.468;2023-11-19T12:40:12;14.40;99.90
32640;DHT22;19049;52.524;11.468;2023-11-19T12:42:38;14.50;99.90
32640;DHT22;19049;52.524;11.468;2023-11-19T12:45:05;14.60;99.90
32640;DHT22;19049;52.524;11.468;2023-11-19T12:47:30;14.70;99.90
32640;DHT22;19049;52.524;11.468;2023-11-19T12:49:57;14.90;99.90
32640;DHT22;19049;52.524;11.468;2023-11-19T12:52:22;15.00;99.90
32640;DHT22;19049;52.524;11.468;2023-11-19T12:54:49;15.00;99.90
32640;DHT22;19049;52.524;11.468;2023-11-19T12:57:15;15.10;99.90
32640;DHT22;19049;52.524;11.468;2023-11-19T12:59:40;15.10;99.90
32640;DHT22;19049;52.524;11.468;2023-11-19T13:02:06;15.10;99.90
32640;DHT22;19049;52.524;11.468;2023-11-19T13:04:32;15.10;99.90
32640;DHT22;19049;52.524;11.468;2023-11-19T13:06:58;15.10;99.90
32640;DHT22;19049;52.524;11.468;2023-11-19T13:09:28;15.10;99.90
32640;DHT22;19049;52.524;11.468;2023-11-19T13:11:55;15.10;99.90
32640;DHT22;19049;52.524;11.468;2023-11-19T13:14:21;15.10;99.90
32640;DHT22;19049;52.524;11.468;2023-11-19T13:16:47;14.90;99.90
32640;DHT22;19049;52.524;11.468;2023-11-19T13:19:13;14.90;99.90
32640;DHT22;19049;52.524;11.468;2023-11-19T13:21:39;14.80;99.90
32640;DHT22;19049;52.524;11.468;2023-11-19T13:24:06;14.80;99.90
32640;DHT22;19049;52.524;11.468;2023-11-19T13:26:32;14.90;99.90
32640;DHT22;19049;52.524;11.468;2023-11-19T13:28:57;14.80;99.90
32640;DHT22;19049;52.524;11.468;2023-11-19T13:31:23;14.70;99.90
32640;DHT22;19049;52.524;11.468;2023-11-19T13:33:49;14.70;99.90
32640;DHT22;19049;52.524;11.468;2023-11-19T13:36:15;14.60;99.90
32640;DHT22;19049;52.524;11.468;2023-11-19T13:38:40;14.70;99.90
32640;DHT22;19049;52.524;11.468;2023-11-19T13:41:07;14.80;99.90
32640;DHT22;19049;52.524;11.468;2023-11-19T13:43:35;14.90;99.90
32640;DHT22;19049;52.524;11.468;2023-11-19T13:46:01;14.80;99.90
32640;DHT22;19049;52.524;11.468;2023-11-19T13:48:27;14.80;99.90
32640;DHT22;19049;52.524;11.468;2023-11-19T13:50:57;14.80;99.90
32640;DHT22;19049;52.524;11.468;2023-11-19T13:53:23;14.80;99.90
32640;DHT22;19049;52.524;11.468;2023-11-19T13:55:49;14.80;99.90
32640;DHT22;19049;52.524;11.468;2023-11-19T13:58:15;14.90;99.90
32640;DHT22;19049;52.524;11.468;2023-11-19T14:00:41;14.90;99.90
32640;DHT22;19049;52.524;11.468;2023-11-19T14:03:07;14.90;99.90
32640;DHT22;19049;52.524;11.468;2023-11-19T14:05:33;14.90;99.90
32640;DHT22;19049;52.524;11.468;2023-11-19T14:07:59;14.90;99.90
32640;DHT22;19049;52.524;11.468;2023-11-19T14:10:24;14.80;99.90
32640;DHT22;19049;52.524;11.468;2023-11-19T14:12:50;14.80;99.90
32640;DHT22;19049;52.524;11.468;2023-11-19T14:15:16;14.80;99.90
32640;DHT22;19049;52.524;11.468;2023-11-19T14:17:43;14.80;99.90
32640;DHT22;19049;52.524;11.468;2023-11-19T14:20:09;14.70;99.90
32640;DHT22;19049;52.524;11.468;2023-11-19T14:22:45;14.70;99.90
32640;DHT22;19049;52.524;11.468;2023-11-19T14:25:14;14.60;99.90
32640;DHT22;19049;52.524;11.468;2023-11-19T14:27:41;14.50;99.90
32640;DHT22;19049;52.524;11.468;2023-11-19T14:30:08;14.50;99.90
32640;DHT22;19049;52.524;11.468;2023-11-19T14:32:36;14.50;99.90
32640;DHT22;19049;52.524;11.468;2023-11-19T14:35:03;14.50;99.90
32640;DHT22;19049;52.524;11.468;2023-11-19T14:37:29;14.40;99.90
32640;DHT22;19049;52.524;11.468;2023-11-19T14:39:56;14.30;99.90
32640;DHT22;19049;52.524;11.468;2023-11-19T14:42:23;14.30;99.90
32640;DHT22;19049;52.524;11.468;2023-11-19T14:44:51;14.30;99.90
32640;DHT22;19049;52.524;11.468;2023-11-19T14:47:18;14.30;99.90
32640;DHT22;19049;52.524;11.468;2023-11-19T14:49:44;14.20;99.90
32640;DHT22;19049;52.524;11.468;2023-11-19T14:52:10;14.10;99.90
32640;DHT22;19049;52.524;11.468;2023-11-19T14:54:36;14.10;99.90
32640;DHT22;19049;52.524;11.468;2023-11-19T14:57:02;14.10;99.90
32640;DHT22;19049;52.524;11.468;2023-11-19T14:59:28;14.10;99.90
32640;DHT22;19049;52.524;11.468;2023-11-19T15:01:54;14.10;99.90
32640;DHT22;19049;52.524;11.468;2023-11-19T15:04:20;14.10;99.90
32640;DHT22;19049;52.524;11.468;2023-11-19T15:06:46;14.20;99.90
32640;DHT22;19049;52.524;11.468;2023-11-19T15:09:11;14.20;99.90
32640;DHT22;19049;52.524;11.468;2023-11-19T15:11:43;14.20;99.90
32640;DHT22;19049;52.524;11.468;2023-11-19T15:14:08;14.20;99.90
32640;DHT22;19049;52.524;11.468;2023-11-19T15:16:34;14.20;99.90
32640;DHT22;19049;52.524;11.468;2023-11-19T15:19:00;14.10;99.90
32640;DHT22;19049;52.524;11.468;2023-11-19T15:21:28;14.20;99.90
32640;DHT22;19049;52.524;11.468;2023-11-19T15:23:55;14.10;99.90
32640;DHT22;19049;52.524;11.468;2023-11-19T15:26:21;14.20;99.90
32640;DHT22;19049;52.524;11.468;2023-11-19T15:28:47;14.20;99.90
32640;DHT22;19049;52.524;11.468;2023-11-19T15:31:13;14.20;99.90
32640;DHT22;19049;52.524;11.468;2023-11-19T15:33:41;14.20;99.90
32640;DHT22;19049;52.524;11.468;2023-11-19T15:36:08;14.20;99.90
32640;DHT22;19049;52.524;11.468;2023-11-19T15:38:34;14.20;99.90
32640;DHT22;19049;52.524;11.468;2023-11-19T15:41:00;14.20;99.90
32640;DHT22;19049;52.524;11.468;2023-11-19T15:43:25;14.20;99.90
32640;DHT22;19049;52.524;11.468;2023-11-19T15:45:51;14.10;99.90